Addison, Pennsylvania
Current Conditions -  °F | °C
As of 2:35 AM on Saturday 29 Nov 2014 (Local Time) from K2G4 Reporting Station
Overcast Overcast  
Wind Chill: 16°   Ceiling: 5000
Heat Index: 25°   Visibility: 10mi
Dew Point: 10°   Wind: 8mph
Humidity: 54%   Direction: 200°SSW
Pressure: 30.11"   Gusts: NA
Location:  39.75°N, 79.34°W
Report Text: K2G4 290735Z AUTO 20007KT 10SM OVC050 M04/M12 A3011 RMK AO1
Loading
Personal Weather Stations






























Interactive Weather Map New forecast layout! Learn more

10-Day Weather Forecast

Advertisements
Track Severe Weather on mobile